Time;durP1;ratioP1;P1;durP2;ratioP2;P2;SDS_P1;SDS_P2;PMS_P1;PMS_P2;Temp;Humidity;BMP_temperature;BMP_pressure;BME280_temperature;BME280_humidity;BME280_pressure;Samples;Min_cycle;Max_cycle;Signal;HPM_P1;HPM_P2
2021/12/14 00:00:53;;;;;;;;;17.00;14.75;;;;;9.40;67.42;102667.13;5019686;28;45805;-85
2021/12/14 00:03:23;;;;;;;;;15.50;14.00;;;;;9.41;67.93;102666.22;5019388;28;45271;-85
2021/12/14 00:05:49;;;;;;;;;17.75;15.50;;;;;9.38;67.71;102666.25;5018240;28;47361;-87
2021/12/14 00:08:16;;;;;;;;;18.25;17.00;;;;;9.41;67.99;102671.47;5010692;28;45586;-86
2021/12/14 00:11:08;;;;;;;;;19.25;18.50;;;;;9.40;68.01;102682.88;5015610;28;45688;-86
2021/12/14 00:13:52;;;;;;;;;19.25;17.00;;;;;9.40;67.80;102667.13;5019640;28;45385;-85
2021/12/14 00:16:18;;;;;;;;;18.75;17.25;;;;;9.39;67.92;102667.97;5003337;28;45267;-92
2021/12/14 00:18:43;;;;;;;;;21.50;16.25;;;;;9.38;67.96;102666.25;5026597;28;48771;-88
2021/12/14 00:21:19;;;;;;;;;20.25;16.75;;;;;9.41;68.12;102662.72;5019230;28;45435;-88
2021/12/14 00:26:30;;;;;;;;;19.50;17.25;;;;;9.40;68.29;102646.13;5019506;28;45402;-87
2021/12/14 00:28:56;;;;;;;;;24.75;21.25;;;;;9.44;67.96;102649.63;5009880;28;46565;-87
2021/12/14 00:31:21;;;;;;;;;20.50;17.75;;;;;9.43;68.30;102653.97;5019186;28;45465;-87
2021/12/14 00:33:52;;;;;;;;;25.00;22.75;;;;;9.46;68.07;102663.63;5019014;28;45382;-87
2021/12/14 00:36:18;;;;;;;;;22.50;17.50;;;;;9.45;67.70;102668.00;5018020;28;46880;-89
2021/12/14 00:38:48;;;;;;;;;26.50;18.00;;;;;9.45;68.08;102657.50;5016964;28;45438;-86
2021/12/14 00:41:18;;;;;;;;;21.50;16.50;;;;;9.45;67.96;102647.00;5016821;28;45292;-90
2021/12/14 00:43:44;;;;;;;;;24.00;19.75;;;;;9.39;68.17;102648.72;5015194;28;45551;-89
2021/12/14 00:46:10;;;;;;;;;21.75;18.25;;;;;9.38;68.01;102642.63;5038187;28;45509;-87
2021/12/14 00:48:38;;;;;;;;;26.75;19.25;;;;;9.39;68.67;102646.09;5020627;28;45350;-89
2021/12/14 00:51:05;;;;;;;;;21.25;20.25;;;;;9.39;68.28;102659.22;5019162;28;45213;-89
2021/12/14 00:53:31;;;;;;;;;21.00;19.00;;;;;9.36;68.04;102656.59;5019018;28;45268;-89
2021/12/14 00:55:59;;;;;;;;;21.00;17.50;;;;;9.32;68.64;102655.72;5019091;28;45220;-89
2021/12/14 00:58:25;;;;;;;;;19.75;17.25;;;;;9.31;68.36;102646.09;5016425;28;47205;-89
2021/12/14 01:01:02;;;;;;;;;19.00;14.00;;;;;9.33;68.66;102632.09;5019175;28;45355;-91
2021/12/14 01:03:32;;;;;;;;;20.00;19.25;;;;;9.33;68.62;102633.84;5034088;28;45479;-88
2021/12/14 01:05:59;;;;;;;;;19.75;15.25;;;;;9.33;68.32;102632.09;5018985;28;45577;-85
2021/12/14 01:08:31;;;;;;;;;20.25;18.75;;;;;9.36;68.46;102652.22;5015018;28;45453;-86
2021/12/14 01:11:04;;;;;;;;;20.75;17.75;;;;;9.33;68.50;102650.44;5021834;28;45216;-87
2021/12/14 01:13:32;;;;;;;;;23.75;21.25;;;;;9.31;68.19;102654.81;5022305;28;45160;-86
2021/12/14 01:16:17;;;;;;;;;16.75;13.75;;;;;9.34;68.19;102669.72;5021704;28;45267;-87
2021/12/14 01:19:00;;;;;;;;;16.00;12.25;;;;;9.33;68.19;102667.97;5020973;28;45715;-86
2021/12/14 01:24:24;;;;;;;;;10.25;8.25;;;;;9.36;68.44;102664.47;5021943;28;45414;-85
2021/12/14 01:26:51;;;;;;;;;11.50;10.25;;;;;9.38;68.41;102668.88;5021781;28;45640;-85
2021/12/14 01:29:18;;;;;;;;;8.50;8.00;;;;;9.37;68.34;102667.09;5016973;28;47273;-85
2021/12/14 01:31:47;;;;;;;;;11.50;7.50;;;;;9.36;68.23;102680.22;5033550;28;45386;-86
2021/12/14 01:34:17;;;;;;;;;11.75;9.00;;;;;9.36;68.34;102696.81;5021647;28;45240;-86
2021/12/14 01:36:51;;;;;;;;;16.00;11.00;;;;;9.39;68.20;102690.72;5021841;28;45357;-85
2021/12/14 01:41:43;;;;;;;;;13.00;12.00;;;;;9.35;68.05;102702.97;5015376;28;45462;-87
2021/12/14 01:44:10;;;;;;;;;15.00;13.25;;;;;9.32;68.07;102697.69;5020013;28;45224;-88
2021/12/14 01:46:43;;;;;;;;;19.50;15.75;;;;;9.34;68.07;102706.44;5020109;28;46203;-88
2021/12/14 01:49:11;;;;;;;;;11.75;11.25;;;;;9.29;68.17;102706.44;5030531;28;47253;-87
2021/12/14 01:51:40;;;;;;;;;13.25;11.75;;;;;9.29;68.05;102709.06;5029146;28;45319;-87
2021/12/14 01:54:08;;;;;;;;;15.50;13.00;;;;;9.28;68.14;102712.56;5026223;28;45453;-86
2021/12/14 01:56:35;;;;;;;;;17.25;15.25;;;;;9.33;68.39;102712.59;5036536;28;46118;-87
2021/12/14 01:59:08;;;;;;;;;14.25;11.00;;;;;9.32;68.25;102723.94;5030162;28;47501;-87
2021/12/14 02:01:45;;;;;;;;;13.50;11.75;;;;;9.36;68.22;102727.47;5021394;28;45176;-86
2021/12/14 02:04:18;;;;;;;;;13.25;11.75;;;;;9.36;68.30;102728.31;5019953;28;45313;-87
2021/12/14 02:06:51;;;;;;;;;11.75;11.75;;;;;9.32;67.98;102724.81;5012371;28;46373;-84
2021/12/14 02:09:17;;;;;;;;;19.00;14.25;;;;;9.31;68.20;102725.69;5021245;28;46324;-84
2021/12/14 02:11:50;;;;;;;;;17.25;13.50;;;;;9.32;68.24;102729.19;5021356;28;45437;-84
2021/12/14 02:14:16;;;;;;;;;11.25;10.25;;;;;9.33;68.06;102746.69;5021125;28;45334;-83
2021/12/14 02:16:43;;;;;;;;;12.25;12.00;;;;;9.30;68.16;102749.31;5010250;28;46152;-83
2021/12/14 02:19:14;;;;;;;;;14.25;12.50;;;;;9.29;68.05;102753.66;5032863;28;45462;-83
2021/12/14 02:21:41;;;;;;;;;12.00;11.75;;;;;9.31;67.92;102772.06;5021274;28;45463;-83
2021/12/14 02:24:10;;;;;;;;;16.75;10.25;;;;;9.23;67.78;102770.25;5019553;28;45529;-83
2021/12/14 02:26:40;;;;;;;;;12.00;10.75;;;;;9.25;68.12;102770.28;5021181;28;45252;-83
2021/12/14 02:29:10;;;;;;;;;11.25;10.50;;;;;9.25;68.38;102765.03;5020644;28;45438;-83
2021/12/14 02:31:40;;;;;;;;;14.25;11.50;;;;;9.27;67.95;102763.28;5020809;28;45783;-83
2021/12/14 02:34:08;;;;;;;;;18.00;13.25;;;;;9.26;68.00;102744.91;5010945;28;45419;-83
2021/12/14 02:36:39;;;;;;;;;13.50;12.75;;;;;9.26;68.13;102735.28;5020931;28;45544;-83
2021/12/14 02:39:23;;;;;;;;;12.00;10.75;;;;;9.27;67.95;102733.53;5022258;28;46295;-83
2021/12/14 02:41:52;;;;;;;;;10.00;10.00;;;;;9.31;68.61;102724.81;5010003;28;45264;-83
2021/12/14 02:44:18;;;;;;;;;14.75;13.50;;;;;9.31;68.47;102707.31;5021022;28;45330;-83
2021/12/14 02:46:48;;;;;;;;;24.75;21.75;;;;;9.34;68.19;102698.56;5015028;28;46394;-83
2021/12/14 02:49:19;;;;;;;;;18.75;15.75;;;;;9.36;68.39;102693.34;5032336;28;46766;-83
2021/12/14 02:51:50;;;;;;;;;19.50;16.25;;;;;9.38;68.52;102702.09;5036614;28;45734;-83
2021/12/14 02:54:21;;;;;;;;;21.00;17.00;;;;;9.43;67.89;102710.88;5019355;28;45450;-83
2021/12/14 02:56:52;;;;;;;;;18.50;16.00;;;;;9.42;68.28;102720.50;5020115;28;45648;-90
2021/12/14 02:59:24;;;;;;;;;21.50;19.50;;;;;9.42;68.46;102716.97;5022643;28;48473;-89
2021/12/14 03:01:52;;;;;;;;;19.00;16.50;;;;;9.43;68.50;102714.34;5028659;28;45881;-87
2021/12/14 03:04:18;;;;;;;;;23.75;22.50;;;;;9.41;68.00;102723.09;5020287;28;45450;-87
2021/12/14 03:06:49;;;;;;;;;17.50;16.50;;;;;9.41;68.60;102723.09;5020617;28;45434;-93
2021/12/14 03:12:11;;;;;;;;;23.25;19.50;;;;;9.46;68.29;102710.88;5021168;28;45359;-94
2021/12/14 03:14:38;;;;;;;;;27.75;22.25;;;;;9.48;68.40;102708.25;5033478;28;45358;-96
2021/12/14 03:17:04;;;;;;;;;27.75;25.25;;;;;9.49;68.17;102702.13;5020315;28;47117;-83
2021/12/14 03:19:29;;;;;;;;;20.75;19.50;;;;;9.50;68.14;102698.63;5019858;28;45311;-85
2021/12/14 03:21:55;;;;;;;;;26.75;20.00;;;;;9.52;68.21;102691.63;5020254;28;45244;-86
2021/12/14 03:24:21;;;;;;;;;22.25;19.50;;;;;9.56;68.21;102682.91;5020027;28;45374;-86
2021/12/14 03:26:51;;;;;;;;;20.75;18.00;;;;;9.56;68.72;102670.66;5015195;28;45516;-86
2021/12/14 03:29:30;;;;;;;;;18.00;16.00;;;;;9.59;68.62;102682.91;5014383;28;46043;-88
2021/12/14 03:31:58;;;;;;;;;22.75;17.00;;;;;9.61;67.88;102681.16;5018866;28;45268;-88
2021/12/14 03:34:29;;;;;;;;;14.00;13.25;;;;;9.63;67.83;102689.06;5019979;28;45364;-85
2021/12/14 03:37:07;;;;;;;;;16.00;14.00;;;;;9.60;67.34;102681.16;5019255;28;45630;-86
2021/12/14 03:39:34;;;;;;;;;17.50;13.50;;;;;9.62;67.67;102680.31;5026492;28;46331;-84
2021/12/14 03:42:07;;;;;;;;;19.50;17.00;;;;;9.61;67.83;102683.78;5017681;28;45412;-84
2021/12/14 03:44:36;;;;;;;;;16.25;13.50;;;;;9.62;67.29;102668.91;5020053;28;45136;-85
2021/12/14 03:47:07;;;;;;;;;17.00;14.50;;;;;9.64;67.32;102677.66;5013915;28;45438;-85
2021/12/14 03:49:39;;;;;;;;;20.25;17.25;;;;;9.62;67.61;102671.53;5015477;28;46549;-85
2021/12/14 03:52:10;;;;;;;;;20.25;19.00;;;;;9.61;67.19;102672.41;5019810;28;45172;-85
2021/12/14 03:54:37;;;;;;;;;19.00;15.75;;;;;9.57;67.30;102666.28;5019726;28;45368;-83
2021/12/14 03:57:03;;;;;;;;;21.25;15.75;;;;;9.55;67.20;102673.28;5018667;28;45531;-88
2021/12/14 03:59:30;;;;;;;;;20.00;17.25;;;;;9.53;67.16;102678.50;5034703;28;47599;-88
2021/12/14 04:01:58;;;;;;;;;20.75;17.50;;;;;9.54;67.42;102679.38;5032321;28;45240;-88
2021/12/14 04:04:38;;;;;;;;;24.50;19.75;;;;;9.55;67.21;102671.53;5006449;28;45422;-88
2021/12/14 04:07:06;;;;;;;;;24.75;22.25;;;;;9.55;67.27;102665.41;5015241;28;45400;-89
2021/12/14 04:09:36;;;;;;;;;24.00;19.00;;;;;9.52;67.49;102662.75;5019384;28;46383;-89
2021/12/14 04:12:05;;;;;;;;;24.00;21.00;;;;;9.53;67.25;102668.00;5017582;28;45935;-89
2021/12/14 04:14:31;;;;;;;;;20.50;20.00;;;;;9.53;67.34;102664.53;5013512;28;45226;-89
2021/12/14 04:16:59;;;;;;;;;24.75;22.75;;;;;9.56;67.75;102656.63;5012950;28;46932;-96
2021/12/14 04:19:28;;;;;;;;;24.50;22.00;;;;;9.59;67.67;102653.16;5011249;28;48413;-94
2021/12/14 04:21:58;;;;;;;;;21.00;19.25;;;;;9.59;67.52;102656.66;5034421;28;46100;-91
2021/12/14 04:24:28;;;;;;;;;25.50;21.50;;;;;9.60;67.52;102657.53;5035057;28;45315;-84
2021/12/14 04:26:57;;;;;;;;;23.25;20.50;;;;;9.61;67.80;102644.41;5006772;28;45324;-88
2021/12/14 04:29:23;;;;;;;;;35.25;24.75;;;;;9.62;67.88;102651.41;5019411;28;45246;-87
2021/12/14 04:31:50;;;;;;;;;28.25;25.00;;;;;9.63;68.02;102657.56;5017688;28;45257;-80
2021/12/14 04:34:17;;;;;;;;;29.25;24.75;;;;;9.64;68.00;102665.41;5010501;28;45396;-81
2021/12/14 04:36:46;;;;;;;;;29.25;25.25;;;;;9.66;67.77;102679.44;5019189;28;45864;-81
2021/12/14 04:39:52;;;;;;;;;33.25;27.50;;;;;9.63;67.61;102679.41;5019254;28;45504;-81
2021/12/14 04:53:37;;;;;;;;;28.75;23.00;;;;;9.59;67.74;102692.53;5010866;28;45327;-82
2021/12/14 04:56:07;;;;;;;;;26.50;25.75;;;;;9.57;68.03;102688.16;5022665;28;45284;-82
2021/12/14 04:58:38;;;;;;;;;27.25;24.75;;;;;9.56;68.14;102681.16;5022323;28;45434;-83
2021/12/14 05:01:07;;;;;;;;;32.25;25.50;;;;;9.57;68.09;102682.03;5022190;28;46550;-84
2021/12/14 05:03:42;;;;;;;;;28.50;21.00;;;;;9.59;68.07;102679.41;5021433;28;45422;-82
2021/12/14 05:06:14;;;;;;;;;32.50;28.00;;;;;9.60;68.13;102687.31;5022538;28;45466;-82
2021/12/14 05:11:15;;;;;;;;;29.50;24.00;;;;;9.59;67.46;102684.66;5022196;28;45196;-80
2021/12/14 05:13:50;;;;;;;;;26.00;21.50;;;;;9.55;67.42;102678.53;5008652;28;45347;-80
2021/12/14 05:16:22;;;;;;;;;25.00;21.50;;;;;9.51;67.56;102679.38;5022166;28;45445;-80
2021/12/14 05:18:51;;;;;;;;;27.75;20.25;;;;;9.51;67.78;102676.75;5021907;28;45337;-80
2021/12/14 05:21:28;;;;;;;;;24.25;22.50;;;;;9.52;67.61;102687.28;5022028;28;45447;-80
2021/12/14 05:23:56;;;;;;;;;27.50;26.00;;;;;9.55;67.45;102681.16;5021487;28;45789;-80
2021/12/14 05:26:22;;;;;;;;;24.50;20.75;;;;;9.55;67.33;102692.53;5022159;28;45302;-80
2021/12/14 05:28:48;;;;;;;;;25.50;23.00;;;;;9.57;67.31;102687.28;5021884;28;45253;-80
2021/12/14 05:31:14;;;;;;;;;28.75;24.50;;;;;9.56;67.81;102683.78;5021630;28;45232;-81
2021/12/14 05:33:40;;;;;;;;;24.75;20.00;;;;;9.56;67.81;102685.50;5026346;28;46877;-80
2021/12/14 05:36:09;;;;;;;;;25.25;21.00;;;;;9.56;67.30;102688.13;5029079;28;45352;-80
2021/12/14 05:38:55;;;;;;;;;26.25;22.50;;;;;9.54;67.82;102682.03;5021880;28;45438;-81
2021/12/14 05:44:21;;;;;;;;;24.75;22.75;;;;;9.54;67.77;102688.16;5019507;28;45395;-81
2021/12/14 05:46:50;;;;;;;;;27.75;22.25;;;;;9.54;67.53;102682.91;5021717;28;45405;-84
2021/12/14 05:49:19;;;;;;;;;28.50;21.00;;;;;9.55;67.96;102689.91;5021343;28;45419;-82
2021/12/14 05:51:45;;;;;;;;;24.75;21.25;;;;;9.56;67.64;102686.41;5024486;28;45666;-85
2021/12/14 05:54:18;;;;;;;;;24.00;21.50;;;;;9.54;67.52;102682.03;5029675;28;45250;-80
2021/12/14 05:56:44;;;;;;;;;24.00;21.00;;;;;9.55;67.82;102689.91;5021237;28;45412;-81
2021/12/14 05:59:09;;;;;;;;;27.50;25.50;;;;;9.59;67.88;102689.91;5020170;28;45670;-81
2021/12/14 06:01:35;;;;;;;;;26.75;24.50;;;;;9.59;67.75;102696.03;5019730;28;46136;-82
2021/12/14 06:04:05;;;;;;;;;23.50;21.00;;;;;9.60;67.70;102695.19;5014889;28;45484;-81
2021/12/14 06:06:34;;;;;;;;;26.25;23.25;;;;;9.60;67.65;102692.56;5014221;28;45237;-80
2021/12/14 06:09:11;;;;;;;;;29.75;23.25;;;;;9.60;67.83;102702.16;5026339;28;45560;-81
2021/12/14 06:11:38;;;;;;;;;24.25;22.50;;;;;9.59;67.92;102713.53;5022583;28;45442;-79
2021/12/14 06:14:10;;;;;;;;;33.25;27.00;;;;;9.60;68.04;102710.06;5021256;28;45413;-81
2021/12/14 06:16:36;;;;;;;;;35.75;27.75;;;;;9.59;67.60;102703.03;5020944;28;45388;-80
2021/12/14 06:19:22;;;;;;;;;29.50;25.25;;;;;9.59;68.01;102716.16;5008990;28;45348;-78
2021/12/14 06:22:01;;;;;;;;;29.25;24.50;;;;;9.59;67.72;102729.28;5018289;28;46253;-78
2021/12/14 06:24:28;;;;;;;;;24.50;21.00;;;;;9.57;67.97;102730.19;5018397;28;45356;-81
2021/12/14 06:26:57;;;;;;;;;29.25;23.00;;;;;9.57;67.58;102737.16;5018321;28;45486;-78
2021/12/14 06:29:27;;;;;;;;;33.50;29.50;;;;;9.59;67.69;102743.28;5008894;28;45393;-77
2021/12/14 06:31:54;;;;;;;;;25.50;23.75;;;;;9.55;67.35;102746.78;5013381;28;45400;-77
2021/12/14 06:34:28;;;;;;;;;24.00;20.75;;;;;9.52;68.21;102742.41;5015291;28;45311;-77
2021/12/14 06:40:06;;;;;;;;;33.25;26.25;;;;;9.56;67.74;102751.16;5009493;28;45522;-83
2021/12/14 06:42:33;;;;;;;;;34.50;26.25;;;;;9.53;68.05;102744.13;5011874;28;46048;-83
2021/12/14 06:45:04;;;;;;;;;30.25;26.25;;;;;9.54;68.14;102747.66;5020890;28;45586;-83
2021/12/14 06:47:30;;;;;;;;;29.50;20.50;;;;;9.59;67.87;102752.91;5019221;28;45363;-83
2021/12/14 06:50:00;;;;;;;;;29.50;25.00;;;;;9.55;67.81;102749.41;5021132;28;45496;-82
2021/12/14 06:52:25;;;;;;;;;26.50;21.25;;;;;9.53;68.50;102759.88;5020585;28;45483;-84
2021/12/14 06:54:51;;;;;;;;;30.25;20.25;;;;;9.52;68.02;102766.03;5020690;28;45389;-82
2021/12/14 06:57:17;;;;;;;;;28.75;22.00;;;;;9.49;67.88;102762.50;5020951;28;45322;-83
2021/12/14 06:59:42;;;;;;;;;25.25;22.00;;;;;9.46;68.20;102768.59;5020328;28;45448;-83
2021/12/14 07:02:09;;;;;;;;;22.50;21.25;;;;;9.41;67.82;102771.22;5020286;28;45385;-84
2021/12/14 07:04:40;;;;;;;;;29.25;19.75;;;;;9.35;68.03;102765.94;5020089;28;45784;-83
2021/12/14 07:07:09;;;;;;;;;24.25;20.75;;;;;9.26;68.33;102763.28;5028555;28;45376;-83
2021/12/14 07:09:43;;;;;;;;;25.75;23.00;;;;;9.25;68.06;102775.53;5024480;28;45437;-82
2021/12/14 07:12:22;;;;;;;;;26.50;20.25;;;;;9.20;67.96;102777.25;5020381;28;45425;-84
2021/12/14 07:14:53;;;;;;;;;23.50;21.25;;;;;9.21;68.26;102773.75;5020146;28;45392;-83
2021/12/14 07:17:32;;;;;;;;;26.75;22.50;;;;;9.18;68.08;102774.63;5033575;28;45419;-83
2021/12/14 07:20:00;;;;;;;;;30.75;24.25;;;;;9.20;68.42;102775.50;5020222;28;45339;-84
2021/12/14 07:22:27;;;;;;;;;20.25;17.75;;;;;9.23;68.51;102774.66;5020229;28;46561;-83
2021/12/14 07:25:09;;;;;;;;;22.50;21.50;;;;;9.23;68.89;102766.78;5020232;28;46060;-83
2021/12/14 07:27:49;;;;;;;;;28.00;24.75;;;;;9.30;68.61;102765.06;5020022;28;45481;-83
2021/12/14 07:30:34;;;;;;;;;29.25;23.75;;;;;9.32;68.43;102766.81;5020042;28;45565;-83
2021/12/14 07:33:05;;;;;;;;;24.75;20.50;;;;;9.38;68.64;102771.22;5019905;28;45435;-83
2021/12/14 07:35:36;;;;;;;;;26.25;24.50;;;;;9.41;68.00;102772.97;5013336;28;45402;-83
2021/12/14 07:38:19;;;;;;;;;22.25;20.75;;;;;9.37;68.54;102768.56;5014350;28;45255;-83
2021/12/14 07:40:53;;;;;;;;;34.00;25.75;;;;;9.40;68.39;102777.34;5020044;28;45292;-83
2021/12/14 07:43:21;;;;;;;;;30.50;26.50;;;;;9.47;68.48;102780.00;5019024;28;45484;-83
2021/12/14 07:45:50;;;;;;;;;18.25;15.25;;;;;9.44;68.78;102779.13;5019914;28;45157;-83
2021/12/14 07:48:16;;;;;;;;;22.75;21.00;;;;;9.47;68.66;102775.63;5019684;28;45418;-83
2021/12/14 07:50:49;;;;;;;;;29.75;22.00;;;;;9.50;68.14;102790.50;5019855;28;45483;-83
2021/12/14 07:53:30;;;;;;;;;26.50;22.00;;;;;9.50;68.42;102787.88;5019625;28;45657;-83
2021/12/14 07:55:55;;;;;;;;;27.25;20.25;;;;;9.54;68.34;102793.16;5020068;28;45683;-83
2021/12/14 07:58:37;;;;;;;;;27.25;20.50;;;;;9.53;68.18;102790.53;5019619;28;45566;-83
2021/12/14 08:01:05;;;;;;;;;25.50;22.25;;;;;9.57;68.40;102792.31;5019397;28;45478;-83
2021/12/14 08:03:33;;;;;;;;;29.75;24.50;;;;;9.60;68.15;102800.19;5019077;28;45405;-83
2021/12/14 08:06:04;;;;;;;;;27.50;22.25;;;;;9.59;68.28;102801.06;5019880;28;45802;-83
2021/12/14 08:08:43;;;;;;;;;24.75;20.75;;;;;9.62;68.14;102795.81;5019418;28;45238;-83
2021/12/14 08:14:04;;;;;;;;;39.25;31.25;;;;;9.69;67.92;102801.97;5019416;28;46052;-83
2021/12/14 08:16:55;;;;;;;;;35.00;31.50;;;;;9.70;67.59;102813.38;5030364;28;45497;-83
2021/12/14 08:19:34;;;;;;;;;43.00;32.25;;;;;9.70;67.35;102819.50;5022720;28;45241;-83
2021/12/14 08:22:05;;;;;;;;;35.50;27.00;;;;;9.67;67.59;102820.38;5038178;28;47384;-83
2021/12/14 08:24:30;;;;;;;;;28.50;24.50;;;;;9.72;67.46;102827.38;5023066;28;45313;-83
2021/12/14 08:27:01;;;;;;;;;43.25;34.50;;;;;9.73;67.40;102829.13;5035405;28;45927;-83
2021/12/14 08:29:32;;;;;;;;;61.50;46.00;;;;;9.78;67.33;102837.88;5022811;28;45351;-83
2021/12/14 08:32:13;;;;;;;;;48.75;37.50;;;;;9.76;67.44;102832.63;5025232;28;45468;-83
2021/12/14 08:34:45;;;;;;;;;46.75;37.25;;;;;9.77;67.50;102841.41;5029145;28;46441;-83
2021/12/14 08:37:14;;;;;;;;;40.25;32.50;;;;;9.77;67.73;102831.78;5022747;28;45362;-83
2021/12/14 08:39:50;;;;;;;;;41.00;33.25;;;;;9.82;67.47;102830.91;5022771;28;45292;-83
2021/12/14 08:42:23;;;;;;;;;41.75;34.75;;;;;9.83;67.35;102830.91;5024645;28;45161;-83
2021/12/14 08:44:55;;;;;;;;;43.25;33.25;;;;;9.82;67.33;102829.16;5032103;28;45429;-83
2021/12/14 08:47:28;;;;;;;;;41.50;34.00;;;;;9.88;67.39;102834.44;5022352;28;45502;-83
2021/12/14 08:49:56;;;;;;;;;33.75;30.50;;;;;9.87;67.48;102832.69;5022763;28;45465;-83
2021/12/14 08:52:24;;;;;;;;;44.50;31.25;;;;;9.90;67.58;102831.84;5022662;28;45600;-83
2021/12/14 08:54:50;;;;;;;;;38.50;31.75;;;;;9.98;67.40;102850.22;5022401;28;45405;-83
2021/12/14 08:57:20;;;;;;;;;33.25;29.25;;;;;9.97;67.37;102844.13;5022364;28;45736;-83
2021/12/14 08:59:49;;;;;;;;;42.00;33.00;;;;;10.00;67.44;102848.50;5022656;28;45432;-83
2021/12/14 09:02:16;;;;;;;;;39.25;33.50;;;;;10.02;67.34;102857.25;5022044;28;45298;-82
2021/12/14 09:04:52;;;;;;;;;31.00;24.50;;;;;10.01;67.40;102861.63;5022055;28;45563;-83
2021/12/14 09:07:25;;;;;;;;;42.00;33.25;;;;;10.01;67.35;102855.50;5022165;28;45257;-83
2021/12/14 09:09:52;;;;;;;;;35.25;31.25;;;;;10.02;67.25;102852.00;5022728;28;45236;-83
2021/12/14 09:12:26;;;;;;;;;35.75;29.75;;;;;10.04;67.09;102847.63;5021969;28;45412;-83
2021/12/14 09:14:57;;;;;;;;;38.75;32.50;;;;;10.05;67.47;102844.13;5022273;28;45277;-83
2021/12/14 09:17:24;;;;;;;;;42.50;32.25;;;;;10.08;67.70;102840.63;5025980;28;45494;-83
2021/12/14 09:19:55;;;;;;;;;26.75;25.00;;;;;10.09;67.71;102835.41;5030573;28;45205;-83
2021/12/14 09:22:30;;;;;;;;;43.25;31.00;;;;;10.16;67.80;102845.91;5021857;28;45431;-83
2021/12/14 09:24:57;;;;;;;;;42.00;34.50;;;;;10.15;67.54;102838.91;5021858;28;45394;-83
2021/12/14 09:27:26;;;;;;;;;42.50;33.75;;;;;10.17;67.75;102834.53;5022241;28;45434;-83
2021/12/14 09:29:53;;;;;;;;;31.75;31.25;;;;;10.18;67.55;102839.78;5020707;28;45230;-83
2021/12/14 09:32:25;;;;;;;;;38.75;31.00;;;;;10.20;67.08;102845.03;5048627;28;47121;-83
2021/12/14 09:34:51;;;;;;;;;37.25;30.50;;;;;10.18;67.18;102852.94;5034783;28;45449;-83
2021/12/14 09:37:19;;;;;;;;;38.00;28.25;;;;;10.19;67.20;102848.56;5021911;28;45173;-84
2021/12/14 09:39:49;;;;;;;;;38.00;30.50;;;;;10.20;67.01;102855.53;5021911;28;45465;-84
2021/12/14 09:42:23;;;;;;;;;28.50;27.00;;;;;10.21;67.66;102857.31;5011980;28;45336;-83
2021/12/14 09:44:51;;;;;;;;;36.00;33.00;;;;;10.21;67.07;102854.69;5009350;28;45543;-83
2021/12/14 09:47:22;;;;;;;;;31.50;27.75;;;;;10.22;67.59;102857.31;5021568;28;45442;-83
2021/12/14 09:49:49;;;;;;;;;38.25;31.00;;;;;10.24;67.44;102859.97;5020426;28;45422;-83
2021/12/14 09:52:23;;;;;;;;;35.25;29.75;;;;;10.29;67.68;102866.09;5021837;28;45470;-83
2021/12/14 09:54:49;;;;;;;;;39.25;29.50;;;;;10.28;67.39;102864.34;5021593;28;46462;-83
2021/12/14 09:57:24;;;;;;;;;34.50;31.25;;;;;10.31;67.41;102866.97;5021376;28;45911;-83
2021/12/14 09:59:52;;;;;;;;;38.50;30.50;;;;;10.33;66.93;102870.50;5022004;28;45462;-83
2021/12/14 10:02:38;;;;;;;;;34.00;30.75;;;;;10.34;67.01;102874.88;5021407;28;45248;-83
2021/12/14 10:05:14;;;;;;;;;38.25;31.00;;;;;10.37;66.77;102879.25;5021228;28;46654;-83
2021/12/14 10:07:40;;;;;;;;;37.00;31.50;;;;;10.36;66.84;102872.25;5021452;28;45407;-84
2021/12/14 10:10:13;;;;;;;;;24.75;21.25;;;;;10.38;67.00;102870.50;5021362;28;45316;-84
2021/12/14 10:12:49;;;;;;;;;32.75;27.75;;;;;10.38;66.54;102867.88;5033988;28;45454;-83
2021/12/14 10:15:29;;;;;;;;;36.00;31.50;;;;;10.40;66.96;102875.75;5021181;28;45444;-83
2021/12/14 10:17:57;;;;;;;;;35.75;31.00;;;;;10.40;66.78;102867.84;5021240;28;45454;-83
2021/12/14 10:20:27;;;;;;;;;37.75;33.25;;;;;10.42;66.88;102872.25;5021032;28;45305;-83
2021/12/14 10:22:53;;;;;;;;;37.25;31.50;;;;;10.43;67.05;102870.50;5021121;28;45546;-83
2021/12/14 10:25:21;;;;;;;;;42.25;32.25;;;;;10.43;67.33;102863.50;5021009;28;45663;-83
2021/12/14 10:27:47;;;;;;;;;37.50;33.50;;;;;10.46;67.03;102873.16;5021301;28;45186;-83
2021/12/14 10:30:20;;;;;;;;;44.00;32.25;;;;;10.51;67.04;102870.56;5021119;28;45493;-83
2021/12/14 10:32:46;;;;;;;;;41.00;31.50;;;;;10.51;67.15;102870.56;5020523;28;45579;-83
2021/12/14 10:35:21;;;;;;;;;40.25;33.50;;;;;10.51;67.24;102874.06;5026611;28;45663;-83
2021/12/14 10:37:56;;;;;;;;;41.50;31.50;;;;;10.54;67.13;102871.41;5026515;28;45233;-83
2021/12/14 10:43:17;;;;;;;;;45.50;33.25;;;;;10.56;67.12;102881.97;5020535;28;45607;-83
2021/12/14 10:45:55;;;;;;;;;38.50;32.75;;;;;10.60;67.12;102880.19;5020334;28;45296;-83
2021/12/14 10:48:26;;;;;;;;;42.50;33.00;;;;;10.63;66.81;102881.09;5020620;28;45316;-82
2021/12/14 10:50:53;;;;;;;;;47.00;36.00;;;;;10.64;66.44;102877.56;5021027;28;45463;-83
2021/12/14 10:53:20;;;;;;;;;41.25;33.50;;;;;10.65;67.06;102884.59;5020486;28;45490;-83
2021/12/14 10:56:14;;;;;;;;;38.00;32.00;;;;;10.68;67.20;102875.84;5020821;28;46355;-83
2021/12/14 10:58:42;;;;;;;;;43.75;34.25;;;;;10.68;66.86;102883.72;5020389;28;45399;-83
2021/12/14 11:01:12;;;;;;;;;41.50;33.25;;;;;10.69;66.68;102881.09;5020708;28;45419;-83
2021/12/14 11:03:44;;;;;;;;;41.75;33.00;;;;;10.70;66.54;102881.97;5020193;28;46475;-83
2021/12/14 11:06:13;;;;;;;;;46.25;33.75;;;;;10.73;66.75;102886.34;5020596;28;46235;-83
2021/12/14 11:11:53;;;;;;;;;37.00;32.50;;;;;10.75;67.03;102888.13;5020732;28;45336;-83
2021/12/14 11:14:23;;;;;;;;;36.00;33.00;;;;;10.75;66.94;102879.34;5020246;28;45248;-84
2021/12/14 11:20:19;;;;;;;;;43.50;34.00;;;;;10.77;66.92;102867.06;5023464;28;45753;-84
2021/12/14 11:22:53;;;;;;;;;38.25;30.50;;;;;10.79;67.14;102863.56;5026772;28;45235;-84
2021/12/14 11:25:22;;;;;;;;;43.00;33.50;;;;;10.83;66.76;102863.56;5020292;28;45305;-84
2021/12/14 11:27:58;;;;;;;;;44.25;35.50;;;;;10.87;67.25;102860.06;5020086;28;45553;-84
2021/12/14 11:30:37;;;;;;;;;42.25;34.25;;;;;10.88;66.85;102870.59;5018737;28;45788;-84
2021/12/14 11:33:31;;;;;;;;;46.25;37.00;;;;;10.91;66.68;102873.19;5020014;28;45447;-84
2021/12/14 11:36:24;;;;;;;;;39.75;34.00;;;;;10.97;66.75;102874.09;5019973;28;45205;-84
2021/12/14 11:38:56;;;;;;;;;43.75;34.00;;;;;10.99;66.65;102872.31;5048727;28;47975;-84
2021/12/14 11:41:31;;;;;;;;;48.50;34.00;;;;;10.97;66.61;102863.56;5019993;28;45481;-83
2021/12/14 11:44:16;;;;;;;;;37.50;31.75;;;;;10.99;66.14;102862.69;5007971;28;45252;-84
2021/12/14 11:46:46;;;;;;;;;37.00;32.75;;;;;11.02;66.73;102856.53;5019585;28;45453;-84
2021/12/14 11:49:12;;;;;;;;;45.75;33.25;;;;;11.05;66.57;102855.66;5007549;28;45408;-83
2021/12/14 11:51:38;;;;;;;;;42.50;34.25;;;;;11.07;66.78;102846.00;5019657;28;45260;-83
2021/12/14 11:54:03;;;;;;;;;43.75;33.75;;;;;11.08;66.70;102845.16;5032029;28;45244;-83
2021/12/14 11:56:31;;;;;;;;;39.75;34.50;;;;;11.11;66.27;102845.16;5019729;28;45454;-83
2021/12/14 11:59:05;;;;;;;;;43.00;34.75;;;;;11.13;66.69;102843.38;5047509;28;47465;-83
2021/12/14 12:01:48;;;;;;;;;46.75;35.00;;;;;11.14;66.43;102846.00;5019420;28;45335;-84
2021/12/14 12:04:21;;;;;;;;;46.75;36.00;;;;;11.17;66.59;102845.13;5019713;28;45266;-83
2021/12/14 12:09:43;;;;;;;;;39.75;34.00;;;;;11.21;66.35;102841.59;5037178;28;46013;-83
2021/12/14 12:12:11;;;;;;;;;42.75;35.75;;;;;11.23;66.11;102836.34;5019585;28;45222;-84
2021/12/14 12:14:45;;;;;;;;;46.25;35.75;;;;;11.23;66.46;102829.34;5019591;28;45429;-84
2021/12/14 12:17:22;;;;;;;;;43.50;32.50;;;;;11.23;66.00;102829.34;5019349;28;45551;-83